sensor_id;sensor_type;location;lat;lon;timestamp;pressure;altitude;pressure_sealevel;temperature;humidity
32197;BME280;18697;42.770;23.400;2022-11-24T00:01:49;94566.63;;;14.95;63.24
32197;BME280;18697;42.770;23.400;2022-11-24T00:04:15;94562.13;;;15.22;64.93
32197;BME280;18697;42.770;23.400;2022-11-24T00:06:40;94556.78;;;15.24;60.80
32197;BME280;18697;42.770;23.400;2022-11-24T00:09:06;94555.63;;;15.08;60.04
32197;BME280;18697;42.770;23.400;2022-11-24T00:11:34;94561.06;;;14.89;59.00
32197;BME280;18697;42.770;23.400;2022-11-24T00:14:00;94557.63;;;14.77;63.49
32197;BME280;18697;42.770;23.400;2022-11-24T00:16:28;94569.88;;;15.04;63.75
32197;BME280;18697;42.770;23.400;2022-11-24T00:18:55;94573.69;;;15.37;64.08
32197;BME280;18697;42.770;23.400;2022-11-24T00:21:21;94563.13;;;15.54;62.43
32197;BME280;18697;42.770;23.400;2022-11-24T00:23:48;94574.50;;;15.62;61.85
32197;BME280;18697;42.770;23.400;2022-11-24T00:26:16;94578.38;;;15.83;62.40
32197;BME280;18697;42.770;23.400;2022-11-24T00:28:43;94579.28;;;15.97;60.89
32197;BME280;18697;42.770;23.400;2022-11-24T00:31:19;94569.06;;;16.24;60.47
32197;BME280;18697;42.770;23.400;2022-11-24T00:33:49;94573.03;;;16.09;54.06
32197;BME280;18697;42.770;23.400;2022-11-24T00:36:15;94578.56;;;16.15;59.59
32197;BME280;18697;42.770;23.400;2022-11-24T00:38:40;94581.56;;;15.98;58.10
32197;BME280;18697;42.770;23.400;2022-11-24T00:41:06;94592.22;;;15.75;55.41
32197;BME280;18697;42.770;23.400;2022-11-24T00:43:32;94594.72;;;15.49;60.97
32197;BME280;18697;42.770;23.400;2022-11-24T00:45:57;94592.59;;;15.61;61.59
32197;BME280;18697;42.770;23.400;2022-11-24T00:48:22;94591.91;;;15.79;59.96
32197;BME280;18697;42.770;23.400;2022-11-24T00:50:58;94593.88;;;16.14;59.88
32197;BME280;18697;42.770;23.400;2022-11-24T00:53:24;94591.47;;;16.24;58.79
32197;BME280;18697;42.770;23.400;2022-11-24T00:55:50;94593.44;;;16.29;58.06
32197;BME280;18697;42.770;23.400;2022-11-24T00:58:16;94598.66;;;16.38;55.48
32197;BME280;18697;42.770;23.400;2022-11-24T01:00:41;94602.22;;;16.38;58.78
32197;BME280;18697;42.770;23.400;2022-11-24T01:03:06;94605.19;;;16.46;58.62
32197;BME280;18697;42.770;23.400;2022-11-24T01:05:35;94609.84;;;16.62;58.43
32197;BME280;18697;42.770;23.400;2022-11-24T01:08:00;94610.03;;;16.70;56.03
32197;BME280;18697;42.770;23.400;2022-11-24T01:10:26;94603.53;;;16.81;55.93
32197;BME280;18697;42.770;23.400;2022-11-24T01:12:51;94599.59;;;15.73;57.27
32197;BME280;18697;42.770;23.400;2022-11-24T01:15:16;94604.69;;;15.74;59.53
32197;BME280;18697;42.770;23.400;2022-11-24T01:17:42;94597.78;;;15.10;53.34
32197;BME280;18697;42.770;23.400;2022-11-24T01:20:07;94600.59;;;13.94;54.25
32197;BME280;18697;42.770;23.400;2022-11-24T01:22:33;94591.75;;;13.68;63.86
32197;BME280;18697;42.770;23.400;2022-11-24T01:24:59;94609.28;;;13.29;59.21
32197;BME280;18697;42.770;23.400;2022-11-24T01:27:24;94605.41;;;12.93;64.17
32197;BME280;18697;42.770;23.400;2022-11-24T01:29:49;94608.53;;;13.18;62.16
32197;BME280;18697;42.770;23.400;2022-11-24T01:32:14;94609.25;;;13.85;66.15
32197;BME280;18697;42.770;23.400;2022-11-24T01:34:40;94606.50;;;14.54;63.84
32197;BME280;18697;42.770;23.400;2022-11-24T01:37:05;94612.41;;;14.92;61.85
32197;BME280;18697;42.770;23.400;2022-11-24T01:39:30;94612.47;;;15.22;61.06
32197;BME280;18697;42.770;23.400;2022-11-24T01:42:00;94615.88;;;15.44;60.25
32197;BME280;18697;42.770;23.400;2022-11-24T01:44:27;94609.00;;;15.75;58.80
32197;BME280;18697;42.770;23.400;2022-11-24T01:47:37;94601.38;;;16.00;58.57
32197;BME280;18697;42.770;23.400;2022-11-24T01:50:03;94602.09;;;16.31;57.52
32197;BME280;18697;42.770;23.400;2022-11-24T01:52:36;94600.88;;;16.45;57.09
32197;BME280;18697;42.770;23.400;2022-11-24T01:55:16;94603.97;;;16.66;56.05
32197;BME280;18697;42.770;23.400;2022-11-24T01:58:13;94600.34;;;16.71;55.27
32197;BME280;18697;42.770;23.400;2022-11-24T02:00:41;94593.50;;;16.66;55.87
32197;BME280;18697;42.770;23.400;2022-11-24T02:03:09;94603.91;;;16.71;54.91
32197;BME280;18697;42.770;23.400;2022-11-24T02:08:06;94614.13;;;16.69;51.94
32197;BME280;18697;42.770;23.400;2022-11-24T02:10:37;94601.44;;;16.19;53.28
32197;BME280;18697;42.770;23.400;2022-11-24T02:13:03;94605.53;;;16.18;56.26
32197;BME280;18697;42.770;23.400;2022-11-24T02:15:29;94604.06;;;16.12;56.25
32197;BME280;18697;42.770;23.400;2022-11-24T02:17:54;94609.84;;;15.95;52.90
32197;BME280;18697;42.770;23.400;2022-11-24T02:20:20;94612.22;;;15.20;57.51
32197;BME280;18697;42.770;23.400;2022-11-24T02:28:12;94615.97;;;15.63;57.60
32197;BME280;18697;42.770;23.400;2022-11-24T02:30:39;94615.63;;;15.72;57.63
32197;BME280;18697;42.770;23.400;2022-11-24T02:33:04;94623.78;;;16.00;56.10
32197;BME280;18697;42.770;23.400;2022-11-24T02:35:30;94607.34;;;16.16;56.78
32197;BME280;18697;42.770;23.400;2022-11-24T02:37:56;94608.50;;;16.26;55.96
32197;BME280;18697;42.770;23.400;2022-11-24T02:40:23;94603.38;;;16.05;54.51
32197;BME280;18697;42.770;23.400;2022-11-24T02:42:52;94602.19;;;15.95;56.94
32197;BME280;18697;42.770;23.400;2022-11-24T02:45:19;94605.75;;;15.96;56.03
32197;BME280;18697;42.770;23.400;2022-11-24T02:47:45;94607.78;;;15.71;50.63
32197;BME280;18697;42.770;23.400;2022-11-24T02:50:11;94615.03;;;14.78;58.12
32197;BME280;18697;42.770;23.400;2022-11-24T02:52:37;94615.94;;;14.45;54.78
32197;BME280;18697;42.770;23.400;2022-11-24T02:55:03;94618.66;;;12.28;59.94
32197;BME280;18697;42.770;23.400;2022-11-24T02:57:28;94619.88;;;13.03;63.82
32197;BME280;18697;42.770;23.400;2022-11-24T02:59:54;94622.78;;;12.49;58.36
32197;BME280;18697;42.770;23.400;2022-11-24T03:02:19;94615.97;;;12.67;61.67
32197;BME280;18697;42.770;23.400;2022-11-24T03:04:45;94612.47;;;12.72;63.25
32197;BME280;18697;42.770;23.400;2022-11-24T03:07:10;94624.19;;;13.09;66.78
32197;BME280;18697;42.770;23.400;2022-11-24T03:09:35;94612.56;;;13.78;63.21
32197;BME280;18697;42.770;23.400;2022-11-24T03:12:01;94620.91;;;13.78;61.64
32197;BME280;18697;42.770;23.400;2022-11-24T03:14:26;94612.47;;;14.11;62.76
32197;BME280;18697;42.770;23.400;2022-11-24T03:16:51;94628.53;;;13.83;59.50
32197;BME280;18697;42.770;23.400;2022-11-24T03:19:17;94636.41;;;13.34;62.98
32197;BME280;18697;42.770;23.400;2022-11-24T03:21:42;94640.47;;;13.17;60.13
32197;BME280;18697;42.770;23.400;2022-11-24T03:24:07;94653.38;;;13.47;64.87
32197;BME280;18697;42.770;23.400;2022-11-24T03:26:33;94646.78;;;13.84;64.00
32197;BME280;18697;42.770;23.400;2022-11-24T03:28:58;94641.63;;;14.22;60.73
32197;BME280;18697;42.770;23.400;2022-11-24T03:31:24;94649.53;;;13.11;59.91
32197;BME280;18697;42.770;23.400;2022-11-24T03:33:49;94652.91;;;13.32;61.37
32197;BME280;18697;42.770;23.400;2022-11-24T03:36:15;94662.19;;;13.01;58.20
32197;BME280;18697;42.770;23.400;2022-11-24T03:38:40;94655.00;;;12.72;63.91
32197;BME280;18697;42.770;23.400;2022-11-24T03:41:06;94657.78;;;12.72;61.24
32197;BME280;18697;42.770;23.400;2022-11-24T03:43:31;94660.13;;;11.77;60.70
32197;BME280;18697;42.770;23.400;2022-11-24T03:45:57;94665.31;;;11.07;66.57
32197;BME280;18697;42.770;23.400;2022-11-24T03:48:22;94667.72;;;10.94;67.98
32197;BME280;18697;42.770;23.400;2022-11-24T03:50:55;94668.66;;;11.11;71.17
32197;BME280;18697;42.770;23.400;2022-11-24T03:53:22;94668.66;;;11.42;71.42
32197;BME280;18697;42.770;23.400;2022-11-24T03:55:48;94676.16;;;11.62;73.09
32197;BME280;18697;42.770;23.400;2022-11-24T03:58:13;94668.28;;;12.35;71.38
32197;BME280;18697;42.770;23.400;2022-11-24T04:00:39;94680.50;;;12.48;64.68
32197;BME280;18697;42.770;23.400;2022-11-24T04:03:04;94680.78;;;13.43;66.57
32197;BME280;18697;42.770;23.400;2022-11-24T04:05:30;94683.31;;;13.75;64.17
32197;BME280;18697;42.770;23.400;2022-11-24T04:07:56;94685.84;;;13.51;60.75
32197;BME280;18697;42.770;23.400;2022-11-24T04:10:23;94684.81;;;13.20;64.50
32197;BME280;18697;42.770;23.400;2022-11-24T04:12:49;94695.34;;;12.94;66.42
32197;BME280;18697;42.770;23.400;2022-11-24T04:15:17;94693.84;;;12.93;65.19
32197;BME280;18697;42.770;23.400;2022-11-24T04:17:44;94688.13;;;13.30;65.60
32197;BME280;18697;42.770;23.400;2022-11-24T04:20:10;94692.22;;;13.85;64.98
32197;BME280;18697;42.770;23.400;2022-11-24T04:22:36;94688.66;;;14.01;61.23
32197;BME280;18697;42.770;23.400;2022-11-24T04:25:03;94698.00;;;13.20;57.20
32197;BME280;18697;42.770;23.400;2022-11-24T04:27:28;94698.72;;;12.01;60.56
32197;BME280;18697;42.770;23.400;2022-11-24T04:29:54;94702.22;;;12.39;69.55
32197;BME280;18697;42.770;23.400;2022-11-24T04:32:19;94704.59;;;13.28;67.07
32197;BME280;18697;42.770;23.400;2022-11-24T04:34:44;94703.13;;;13.99;64.65
32197;BME280;18697;42.770;23.400;2022-11-24T04:37:10;94701.25;;;14.35;60.41
32197;BME280;18697;42.770;23.400;2022-11-24T04:39:35;94710.81;;;14.85;61.73
32197;BME280;18697;42.770;23.400;2022-11-24T04:42:00;94707.72;;;15.40;59.89
32197;BME280;18697;42.770;23.400;2022-11-24T04:44:26;94700.00;;;15.88;57.63
32197;BME280;18697;42.770;23.400;2022-11-24T04:46:51;94704.81;;;16.23;56.36
32197;BME280;18697;42.770;23.400;2022-11-24T04:49:17;94710.28;;;16.58;55.64
32197;BME280;18697;42.770;23.400;2022-11-24T04:51:42;94708.78;;;16.82;55.30
32197;BME280;18697;42.770;23.400;2022-11-24T04:54:10;94711.94;;;17.16;54.69
32197;BME280;18697;42.770;23.400;2022-11-24T04:56:36;94712.84;;;17.05;53.78
32197;BME280;18697;42.770;23.400;2022-11-24T04:59:01;94713.75;;;17.13;54.37
32197;BME280;18697;42.770;23.400;2022-11-24T05:01:26;94720.50;;;17.04;52.54
32197;BME280;18697;42.770;23.400;2022-11-24T05:03:53;94722.16;;;16.94;55.29
32197;BME280;18697;42.770;23.400;2022-11-24T05:06:19;94722.03;;;17.24;54.26
32197;BME280;18697;42.770;23.400;2022-11-24T05:08:49;94732.88;;;17.33;54.07
32197;BME280;18697;42.770;23.400;2022-11-24T05:11:15;94731.00;;;17.79;52.83
32197;BME280;18697;42.770;23.400;2022-11-24T05:13:41;94727.72;;;18.07;52.68
32197;BME280;18697;42.770;23.400;2022-11-24T05:16:07;94726.53;;;18.02;53.20
32197;BME280;18697;42.770;23.400;2022-11-24T05:18:32;94725.44;;;18.37;52.31
32197;BME280;18697;42.770;23.400;2022-11-24T05:20:58;94728.13;;;18.30;52.50
32197;BME280;18697;42.770;23.400;2022-11-24T05:23:24;94734.25;;;18.74;51.42
32197;BME280;18697;42.770;23.400;2022-11-24T05:25:50;94732.75;;;18.73;52.28
32197;BME280;18697;42.770;23.400;2022-11-24T05:28:16;94736.00;;;18.90;52.40
32197;BME280;18697;42.770;23.400;2022-11-24T05:30:42;94742.94;;;18.89;50.34
32197;BME280;18697;42.770;23.400;2022-11-24T05:33:10;94747.06;;;19.14;50.49
32197;BME280;18697;42.770;23.400;2022-11-24T05:35:37;94744.88;;;19.07;50.87
32197;BME280;18697;42.770;23.400;2022-11-24T05:38:03;94744.88;;;18.94;51.34
32197;BME280;18697;42.770;23.400;2022-11-24T05:40:29;94747.81;;;19.01;50.25
32197;BME280;18697;42.770;23.400;2022-11-24T05:42:55;94749.22;;;18.82;49.76
32197;BME280;18697;42.770;23.400;2022-11-24T05:45:21;94746.28;;;18.74;51.34
32197;BME280;18697;42.770;23.400;2022-11-24T05:47:48;94756.75;;;18.60;51.41
32197;BME280;18697;42.770;23.400;2022-11-24T05:50:15;94755.63;;;18.50;49.15
32197;BME280;18697;42.770;23.400;2022-11-24T05:52:41;94760.03;;;18.00;53.85
32197;BME280;18697;42.770;23.400;2022-11-24T05:55:08;94759.72;;;18.04;53.17
32197;BME280;18697;42.770;23.400;2022-11-24T05:57:34;94755.91;;;18.01;52.47
32197;BME280;18697;42.770;23.400;2022-11-24T05:59:59;94751.47;;;17.55;52.35
32197;BME280;18697;42.770;23.400;2022-11-24T06:02:25;94747.16;;;17.54;54.80
32197;BME280;18697;42.770;23.400;2022-11-24T06:04:50;94758.63;;;17.75;54.59
32197;BME280;18697;42.770;23.400;2022-11-24T06:07:16;94759.78;;;17.66;54.93
32197;BME280;18697;42.770;23.400;2022-11-24T06:09:42;94766.78;;;17.35;54.60
32197;BME280;18697;42.770;23.400;2022-11-24T06:12:09;94774.28;;;17.27;55.80
32197;BME280;18697;42.770;23.400;2022-11-24T06:14:35;94768.53;;;17.38;55.09
32197;BME280;18697;42.770;23.400;2022-11-24T06:17:01;94776.84;;;17.25;55.57
32197;BME280;18697;42.770;23.400;2022-11-24T06:19:26;94774.84;;;17.45;55.53
32197;BME280;18697;42.770;23.400;2022-11-24T06:21:52;94782.38;;;17.74;54.57
32197;BME280;18697;42.770;23.400;2022-11-24T06:24:17;94779.50;;;17.80;54.34
32197;BME280;18697;42.770;23.400;2022-11-24T06:26:43;94772.47;;;17.49;53.71
32197;BME280;18697;42.770;23.400;2022-11-24T06:29:08;94778.09;;;17.49;54.29
32197;BME280;18697;42.770;23.400;2022-11-24T06:31:34;94780.06;;;17.35;54.32
32197;BME280;18697;42.770;23.400;2022-11-24T06:33:59;94787.19;;;17.36;54.52
32197;BME280;18697;42.770;23.400;2022-11-24T06:36:25;94798.38;;;17.17;54.63
32197;BME280;18697;42.770;23.400;2022-11-24T06:38:51;94796.31;;;16.99;54.71
32197;BME280;18697;42.770;23.400;2022-11-24T06:41:16;94797.25;;;17.26;55.24
32197;BME280;18697;42.770;23.400;2022-11-24T06:43:43;94804.56;;;17.10;54.51
32197;BME280;18697;42.770;23.400;2022-11-24T06:46:08;94813.56;;;17.27;55.16
32197;BME280;18697;42.770;23.400;2022-11-24T06:48:34;94808.72;;;17.28;54.83
32197;BME280;18697;42.770;23.400;2022-11-24T06:51:03;94827.66;;;17.22;54.67
32197;BME280;18697;42.770;23.400;2022-11-24T06:53:34;94821.59;;;16.93;54.63
32197;BME280;18697;42.770;23.400;2022-11-24T06:56:03;94830.25;;;16.95;56.39
32197;BME280;18697;42.770;23.400;2022-11-24T06:58:29;94840.47;;;16.93;56.54
32197;BME280;18697;42.770;23.400;2022-11-24T07:00:54;94842.44;;;16.73;57.06
32197;BME280;18697;42.770;23.400;2022-11-24T07:03:19;94848.19;;;16.87;56.60
32197;BME280;18697;42.770;23.400;2022-11-24T07:05:45;94852.72;;;16.65;57.65
32197;BME280;18697;42.770;23.400;2022-11-24T07:08:10;94860.66;;;16.56;59.18
32197;BME280;18697;42.770;23.400;2022-11-24T07:10:36;94856.81;;;16.59;58.88
32197;BME280;18697;42.770;23.400;2022-11-24T07:13:01;94858.28;;;16.71;59.29
32197;BME280;18697;42.770;23.400;2022-11-24T07:15:28;94856.19;;;16.06;57.63
32197;BME280;18697;42.770;23.400;2022-11-24T07:17:54;94862.59;;;16.36;60.58
32197;BME280;18697;42.770;23.400;2022-11-24T07:20:19;94863.34;;;16.37;59.19
32197;BME280;18697;42.770;23.400;2022-11-24T07:22:45;94860.22;;;16.16;59.29
32197;BME280;18697;42.770;23.400;2022-11-24T07:25:11;94856.91;;;15.65;55.00
32197;BME280;18697;42.770;23.400;2022-11-24T07:27:39;94865.97;;;15.25;60.17
32197;BME280;18697;42.770;23.400;2022-11-24T07:30:05;94874.16;;;14.95;63.36
32197;BME280;18697;42.770;23.400;2022-11-24T07:32:30;94869.28;;;15.18;61.71
32197;BME280;18697;42.770;23.400;2022-11-24T07:34:57;94869.25;;;15.29;63.34
32197;BME280;18697;42.770;23.400;2022-11-24T07:37:22;94879.22;;;15.13;58.85
32197;BME280;18697;42.770;23.400;2022-11-24T07:39:47;94878.22;;;14.99;62.68
32197;BME280;18697;42.770;23.400;2022-11-24T07:42:12;94882.28;;;14.14;58.63
32197;BME280;18697;42.770;23.400;2022-11-24T07:44:38;94880.44;;;13.72;63.33
32197;BME280;18697;42.770;23.400;2022-11-24T07:47:05;94888.75;;;12.70;63.42
32197;BME280;18697;42.770;23.400;2022-11-24T07:49:30;94888.63;;;12.48;66.70
32197;BME280;18697;42.770;23.400;2022-11-24T07:51:56;94893.84;;;12.09;68.93
32197;BME280;18697;42.770;23.400;2022-11-24T07:54:21;94890.63;;;12.47;69.50
32197;BME280;18697;42.770;23.400;2022-11-24T07:56:47;94892.84;;;12.75;69.41
32197;BME280;18697;42.770;23.400;2022-11-24T07:59:13;94898.00;;;12.88;71.20
32197;BME280;18697;42.770;23.400;2022-11-24T08:01:38;94894.84;;;13.11;69.88
32197;BME280;18697;42.770;23.400;2022-11-24T08:04:03;94899.28;;;13.29;67.15
32197;BME280;18697;42.770;23.400;2022-11-24T08:06:29;94904.97;;;13.09;68.89
32197;BME280;18697;42.770;23.400;2022-11-24T08:08:55;94910.47;;;12.98;68.64
32197;BME280;18697;42.770;23.400;2022-11-24T08:11:20;94902.84;;;12.93;68.24
32197;BME280;18697;42.770;23.400;2022-11-24T08:13:46;94912.09;;;12.73;68.20
32197;BME280;18697;42.770;23.400;2022-11-24T08:16:13;94912.50;;;12.29;69.25
32197;BME280;18697;42.770;23.400;2022-11-24T08:18:39;94911.72;;;12.02;69.32
32197;BME280;18697;42.770;23.400;2022-11-24T08:21:06;94912.19;;;11.75;69.79
32197;BME280;18697;42.770;23.400;2022-11-24T08:23:32;94923.41;;;11.60;72.90
32197;BME280;18697;42.770;23.400;2022-11-24T08:25:57;94914.28;;;11.60;71.28
32197;BME280;18697;42.770;23.400;2022-11-24T08:28:29;94925.91;;;11.58;73.13
32197;BME280;18697;42.770;23.400;2022-11-24T08:31:12;94930.84;;;11.69;71.93
32197;BME280;18697;42.770;23.400;2022-11-24T08:33:38;94928.13;;;11.74;72.82
32197;BME280;18697;42.770;23.400;2022-11-24T08:36:11;94935.09;;;11.84;71.29
32197;BME280;18697;42.770;23.400;2022-11-24T08:38:36;94931.09;;;11.91;71.04
32197;BME280;18697;42.770;23.400;2022-11-24T08:41:08;94932.31;;;12.10;71.04
32197;BME280;18697;42.770;23.400;2022-11-24T08:43:34;94938.00;;;12.22;68.91
32197;BME280;18697;42.770;23.400;2022-11-24T08:46:04;94935.59;;;12.66;69.97
32197;BME280;18697;42.770;23.400;2022-11-24T08:48:31;94944.84;;;12.83;65.78
32197;BME280;18697;42.770;23.400;2022-11-24T08:50:57;94946.25;;;13.05;66.27
32197;BME280;18697;42.770;23.400;2022-11-24T08:53:23;94952.28;;;12.98;65.88
32197;BME280;18697;42.770;23.400;2022-11-24T08:55:49;94951.94;;;12.84;66.64
32197;BME280;18697;42.770;23.400;2022-11-24T08:58:14;94958.56;;;12.87;66.16
32197;BME280;18697;42.770;23.400;2022-11-24T09:00:40;94960.06;;;12.88;68.23
32197;BME280;18697;42.770;23.400;2022-11-24T09:03:06;94953.38;;;12.43;63.88
32197;BME280;18697;42.770;23.400;2022-11-24T09:05:31;94954.41;;;11.94;66.87
32197;BME280;18697;42.770;23.400;2022-11-24T09:07:57;94965.47;;;11.68;67.48
32197;BME280;18697;42.770;23.400;2022-11-24T09:10:22;94964.91;;;11.64;70.56
32197;BME280;18697;42.770;23.400;2022-11-24T09:12:48;94976.59;;;11.68;69.80
32197;BME280;18697;42.770;23.400;2022-11-24T09:15:15;94967.59;;;11.38;69.49
32197;BME280;18697;42.770;23.400;2022-11-24T09:17:41;94967.97;;;11.45;70.35
32197;BME280;18697;42.770;23.400;2022-11-24T09:20:07;94969.06;;;11.53;70.63
32197;BME280;18697;42.770;23.400;2022-11-24T09:22:33;94967.69;;;11.43;68.89
32197;BME280;18697;42.770;23.400;2022-11-24T09:24:58;94975.22;;;11.02;68.11
32197;BME280;18697;42.770;23.400;2022-11-24T09:27:23;94975.50;;;11.25;69.14
32197;BME280;18697;42.770;23.400;2022-11-24T09:29:49;94979.59;;;11.09;69.72
32197;BME280;18697;42.770;23.400;2022-11-24T09:32:14;94978.97;;;11.19;71.84
32197;BME280;18697;42.770;23.400;2022-11-24T09:34:39;94974.47;;;10.87;68.67
32197;BME280;18697;42.770;23.400;2022-11-24T09:37:05;94976.03;;;10.59;69.95
32197;BME280;18697;42.770;23.400;2022-11-24T09:39:31;94972.41;;;10.52;71.66
32197;BME280;18697;42.770;23.400;2022-11-24T09:42:17;94983.31;;;10.71;70.22
32197;BME280;18697;42.770;23.400;2022-11-24T09:48:01;94979.09;;;10.75;68.40
32197;BME280;18697;42.770;23.400;2022-11-24T09:50:31;94991.81;;;10.82;69.16
32197;BME280;18697;42.770;23.400;2022-11-24T09:55:55;94988.66;;;10.89;69.61
32197;BME280;18697;42.770;23.400;2022-11-24T09:58:42;94988.66;;;10.74;71.16
32197;BME280;18697;42.770;23.400;2022-11-24T10:01:16;94998.16;;;10.53;67.66
32197;BME280;18697;42.770;23.400;2022-11-24T10:03:44;95004.56;;;10.30;67.66
32197;BME280;18697;42.770;23.400;2022-11-24T10:06:30;94990.72;;;10.06;67.04
32197;BME280;18697;42.770;23.400;2022-11-24T10:14:19;94998.94;;;9.38;70.06
32197;BME280;18697;42.770;23.400;2022-11-24T10:17:16;94992.47;;;9.41;70.00
32197;BME280;18697;42.770;23.400;2022-11-24T10:19:48;94991.94;;;9.28;70.24
32197;BME280;18697;42.770;23.400;2022-11-24T10:27:48;95000.69;;;9.02;69.53
32197;BME280;18697;42.770;23.400;2022-11-24T10:30:20;95001.69;;;9.14;71.16
32197;BME280;18697;42.770;23.400;2022-11-24T10:33:09;95005.88;;;9.09;68.71
32197;BME280;18697;42.770;23.400;2022-11-24T10:35:40;95002.97;;;9.04;69.06
32197;BME280;18697;42.770;23.400;2022-11-24T10:40:57;95001.94;;;8.92;68.47
32197;BME280;18697;42.770;23.400;2022-11-24T10:43:25;95000.84;;;8.99;68.98
32197;BME280;18697;42.770;23.400;2022-11-24T10:45:53;95006.97;;;9.03;68.17
32197;BME280;18697;42.770;23.400;2022-11-24T10:48:23;95012.00;;;9.13;71.00
32197;BME280;18697;42.770;23.400;2022-11-24T10:50:52;95005.97;;;9.24;68.75
32197;BME280;18697;42.770;23.400;2022-11-24T10:53:25;95011.91;;;9.32;68.57
32197;BME280;18697;42.770;23.400;2022-11-24T11:00:53;95020.22;;;9.79;67.14
32197;BME280;18697;42.770;23.400;2022-11-24T11:03:21;95014.91;;;9.67;66.49
32197;BME280;18697;42.770;23.400;2022-11-24T11:05:50;95012.69;;;9.32;63.60
32197;BME280;18697;42.770;23.400;2022-11-24T11:08:20;95017.19;;;9.53;67.40
32197;BME280;18697;42.770;23.400;2022-11-24T11:10:49;95017.13;;;9.39;66.16
32197;BME280;18697;42.770;23.400;2022-11-24T11:13:28;95015.50;;;9.23;65.78
32197;BME280;18697;42.770;23.400;2022-11-24T11:15:56;95015.59;;;9.05;65.87
32197;BME280;18697;42.770;23.400;2022-11-24T11:18:28;95018.97;;;9.09;67.55
32197;BME280;18697;42.770;23.400;2022-11-24T11:20:56;95011.31;;;8.95;68.31
32197;BME280;18697;42.770;23.400;2022-11-24T11:23:28;95025.38;;;8.91;65.57
32197;BME280;18697;42.770;23.400;2022-11-24T11:29:12;95033.78;;;8.97;67.19
32197;BME280;18697;42.770;23.400;2022-11-24T11:31:38;95033.31;;;8.98;66.45
32197;BME280;18697;42.770;23.400;2022-11-24T11:36:35;95037.13;;;9.10;65.58
32197;BME280;18697;42.770;23.400;2022-11-24T11:39:04;95033.91;;;9.02;65.82
32197;BME280;18697;42.770;23.400;2022-11-24T11:41:33;95036.66;;;9.11;65.18
32197;BME280;18697;42.770;23.400;2022-11-24T11:47:14;95046.69;;;9.00;64.02
32197;BME280;18697;42.770;23.400;2022-11-24T11:49:43;95047.78;;;8.93;63.95
32197;BME280;18697;42.770;23.400;2022-11-24T11:52:26;95056.00;;;8.87;63.44
32197;BME280;18697;42.770;23.400;2022-11-24T12:00:36;95051.44;;;9.08;64.73
32197;BME280;18697;42.770;23.400;2022-11-24T12:11:36;95060.38;;;10.08;60.45
32197;BME280;18697;42.770;23.400;2022-11-24T12:14:13;95063.63;;;10.30;60.79
32197;BME280;18697;42.770;23.400;2022-11-24T12:17:05;95069.28;;;10.12;58.81
32197;BME280;18697;42.770;23.400;2022-11-24T12:19:48;95058.50;;;9.90;59.83
32197;BME280;18697;42.770;23.400;2022-11-24T12:22:41;95063.50;;;9.62;58.92
32197;BME280;18697;42.770;23.400;2022-11-24T12:28:04;95062.56;;;9.32;59.15
32197;BME280;18697;42.770;23.400;2022-11-24T12:31:01;95069.41;;;9.70;62.16
32197;BME280;18697;42.770;23.400;2022-11-24T12:33:57;95056.81;;;9.69;58.37
32197;BME280;18697;42.770;23.400;2022-11-24T12:39:33;95072.72;;;9.83;59.31
32197;BME280;18697;42.770;23.400;2022-11-24T12:50:29;95086.41;;;10.10;57.95
32197;BME280;18697;42.770;23.400;2022-11-24T12:53:28;95094.31;;;9.79;59.60
32197;BME280;18697;42.770;23.400;2022-11-24T12:56:02;95080.16;;;9.77;60.13
32197;BME280;18697;42.770;23.400;2022-11-24T12:58:48;95090.59;;;10.06;59.34
32197;BME280;18697;42.770;23.400;2022-11-24T13:01:30;95082.75;;;10.04;57.55
32197;BME280;18697;42.770;23.400;2022-11-24T13:07:02;95091.44;;;9.73;58.83
32197;BME280;18697;42.770;23.400;2022-11-24T13:09:28;95094.81;;;9.53;59.80
32197;BME280;18697;42.770;23.400;2022-11-24T13:12:09;95101.97;;;9.36;60.17
32197;BME280;18697;42.770;23.400;2022-11-24T13:14:36;95093.84;;;9.23;60.67
32197;BME280;18697;42.770;23.400;2022-11-24T13:19:47;95102.53;;;9.07;61.21
32197;BME280;18697;42.770;23.400;2022-11-24T13:22:23;95105.31;;;8.98;61.61
32197;BME280;18697;42.770;23.400;2022-11-24T13:25:03;95102.22;;;9.05;62.08
32197;BME280;18697;42.770;23.400;2022-11-24T13:27:41;95096.00;;;8.86;62.44
32197;BME280;18697;42.770;23.400;2022-11-24T13:30:52;95109.47;;;9.03;61.64
32197;BME280;18697;42.770;23.400;2022-11-24T13:44:21;95113.34;;;9.95;61.55
32197;BME280;18697;42.770;23.400;2022-11-24T13:47:00;95118.63;;;9.84;60.58
32197;BME280;18697;42.770;23.400;2022-11-24T13:49:55;95116.69;;;9.75;61.35
32197;BME280;18697;42.770;23.400;2022-11-24T13:57:45;95121.63;;;9.71;59.48
32197;BME280;18697;42.770;23.400;2022-11-24T14:02:45;95127.22;;;9.38;60.58
32197;BME280;18697;42.770;23.400;2022-11-24T14:05:15;95119.53;;;9.33;61.62
32197;BME280;18697;42.770;23.400;2022-11-24T14:07:46;95126.88;;;9.45;66.38
32197;BME280;18697;42.770;23.400;2022-11-24T14:10:20;95138.22;;;9.80;65.57
32197;BME280;18697;42.770;23.400;2022-11-24T14:12:46;95131.75;;;9.83;63.43
32197;BME280;18697;42.770;23.400;2022-11-24T14:15:21;95130.22;;;9.82;64.16
32197;BME280;18697;42.770;23.400;2022-11-24T14:17:47;95138.59;;;9.97;63.43
32197;BME280;18697;42.770;23.400;2022-11-24T14:20:22;95135.00;;;10.06;62.21
32197;BME280;18697;42.770;23.400;2022-11-24T14:22:48;95132.81;;;9.86;61.52
32197;BME280;18697;42.770;23.400;2022-11-24T14:25:26;95142.75;;;9.69;61.46
32197;BME280;18697;42.770;23.400;2022-11-24T14:27:54;95147.06;;;9.70;63.62
32197;BME280;18697;42.770;23.400;2022-11-24T14:30:21;95142.53;;;9.58;62.31
32197;BME280;18697;42.770;23.400;2022-11-24T14:33:00;95144.72;;;9.77;67.05
32197;BME280;18697;42.770;23.400;2022-11-24T14:35:30;95142.00;;;9.92;62.83